createdAt,value
2023-03-08T00:01:23.664Z,7.93
2023-03-08T00:03:55.008Z,8.23
2023-03-08T00:06:22.276Z,8.30
2023-03-08T00:08:49.446Z,7.80
2023-03-08T00:11:17.234Z,8.80
2023-03-08T00:13:43.996Z,9.30
2023-03-08T00:16:13.650Z,7.90
2023-03-08T00:18:40.833Z,8.83
2023-03-08T00:21:16.328Z,8.13
2023-03-08T00:23:43.937Z,8.63
2023-03-08T00:26:11.784Z,7.80
2023-03-08T00:28:39.100Z,9.17
2023-03-08T00:31:08.357Z,7.50
2023-03-08T00:33:35.881Z,8.70
2023-03-08T00:36:05.881Z,8.43
2023-03-08T00:38:34.837Z,8.50
2023-03-08T00:41:01.806Z,8.63
2023-03-08T00:43:29.026Z,7.90
2023-03-08T00:45:55.570Z,8.40
2023-03-08T00:48:22.961Z,8.07
2023-03-08T00:50:49.749Z,7.43
2023-03-08T00:53:16.215Z,8.30
2023-03-08T00:55:50.771Z,8.53
2023-03-08T00:58:17.649Z,8.13
2023-03-08T01:00:44.947Z,9.60
2023-03-08T01:03:11.515Z,9.77
2023-03-08T01:05:42.325Z,9.70
2023-03-08T01:08:09.622Z,9.80
2023-03-08T01:10:36.416Z,11.47
2023-03-08T01:13:04.813Z,11.60
2023-03-08T01:15:35.556Z,11.70
2023-03-08T01:18:02.067Z,10.60
2023-03-08T01:20:28.532Z,11.17
2023-03-08T01:22:54.941Z,10.80
2023-03-08T01:25:21.384Z,11.57
2023-03-08T01:27:47.810Z,11.03
2023-03-08T01:30:14.540Z,11.47
2023-03-08T01:32:41.047Z,11.40
2023-03-08T01:35:07.928Z,11.40
2023-03-08T01:37:34.509Z,11.47
2023-03-08T01:40:01.528Z,12.20
2023-03-08T01:42:28.582Z,11.70
2023-03-08T01:45:01.451Z,12.57
2023-03-08T01:47:30.833Z,12.07
2023-03-08T01:50:02.552Z,11.80
2023-03-08T01:52:38.399Z,9.87
2023-03-08T01:55:10.033Z,12.07
2023-03-08T01:57:40.909Z,13.00
2023-03-08T02:00:14.561Z,10.70
2023-03-08T02:02:44.932Z,11.97
2023-03-08T02:05:11.496Z,11.60
2023-03-08T02:07:37.961Z,12.40
2023-03-08T02:10:04.752Z,12.20
2023-03-08T02:12:32.007Z,13.23
2023-03-08T02:14:58.752Z,12.63
2023-03-08T02:17:26.368Z,13.27
2023-03-08T02:19:57.701Z,12.50
2023-03-08T02:22:24.342Z,12.60
2023-03-08T02:24:50.779Z,12.80
2023-03-08T02:27:21.699Z,13.60
2023-03-08T02:29:48.169Z,13.80
2023-03-08T02:32:15.818Z,13.10
2023-03-08T02:34:42.520Z,11.90
2023-03-08T02:37:09.135Z,13.57
2023-03-08T02:39:35.605Z,11.80
2023-03-08T02:42:02.022Z,13.10
2023-03-08T02:44:28.472Z,14.17
2023-03-08T02:46:54.932Z,14.70
2023-03-08T02:49:21.428Z,14.73
2023-03-08T02:51:47.990Z,13.67
2023-03-08T02:54:16.755Z,14.70
2023-03-08T02:56:43.447Z,15.27
2023-03-08T02:59:09.911Z,15.23
2023-03-08T03:01:36.647Z,15.80
2023-03-08T03:04:03.631Z,16.10
2023-03-08T03:06:30.152Z,15.87
2023-03-08T03:08:56.664Z,14.53
2023-03-08T03:11:24.051Z,16.40
2023-03-08T03:13:56.187Z,15.63
2023-03-08T03:16:23.038Z,15.40
2023-03-08T03:18:49.466Z,16.63
2023-03-08T03:21:15.934Z,16.47
2023-03-08T03:23:42.717Z,15.57
2023-03-08T03:26:18.832Z,16.67
2023-03-08T03:28:46.026Z,18.17
2023-03-08T03:31:15.518Z,15.80
2023-03-08T03:33:42.063Z,18.27
2023-03-08T03:36:11.593Z,18.00
2023-03-08T03:38:39.741Z,19.27
2023-03-08T03:41:08.966Z,17.40
2023-03-08T03:43:36.565Z,17.20
2023-03-08T03:46:08.638Z,16.90
2023-03-08T03:48:36.240Z,19.00
2023-03-08T03:51:09.208Z,16.33
2023-03-08T03:53:36.449Z,17.20
2023-03-08T03:56:13.497Z,17.00
2023-03-08T03:58:40.399Z,17.50
2023-03-08T04:01:28.007Z,18.73
2023-03-08T04:03:55.929Z,16.33
2023-03-08T04:06:30.463Z,17.57
2023-03-08T04:09:02.976Z,17.53
2023-03-08T04:11:33.675Z,17.17
2023-03-08T04:14:00.167Z,17.30
2023-03-08T04:16:29.697Z,16.27
2023-03-08T04:18:58.678Z,16.37
2023-03-08T04:21:25.928Z,16.70
2023-03-08T04:23:53.082Z,16.93
2023-03-08T04:26:20.305Z,15.90
2023-03-08T04:28:46.803Z,17.70
2023-03-08T04:31:14.702Z,15.60
2023-03-08T04:33:41.185Z,16.63
2023-03-08T04:36:08.316Z,16.57
2023-03-08T04:38:34.991Z,17.40
2023-03-08T04:41:01.889Z,16.80
2023-03-08T04:43:29.621Z,16.53
2023-03-08T04:45:56.041Z,16.70
2023-03-08T04:48:23.803Z,15.70
2023-03-08T04:50:56.308Z,16.10
2023-03-08T04:53:23.448Z,14.90
2023-03-08T04:55:50.457Z,16.90
2023-03-08T04:58:17.372Z,16.40
2023-03-08T05:00:43.807Z,17.63
2023-03-08T05:03:10.737Z,16.93
2023-03-08T05:05:37.168Z,17.13
2023-03-08T05:08:05.163Z,16.63
2023-03-08T05:10:32.385Z,15.77
2023-03-08T05:12:58.850Z,16.70
2023-03-08T05:15:25.416Z,17.00
2023-03-08T05:17:51.844Z,17.33
2023-03-08T05:20:18.537Z,17.20
2023-03-08T05:22:58.320Z,18.17
2023-03-08T05:25:25.784Z,16.90
2023-03-08T05:27:52.261Z,17.10
2023-03-08T05:30:19.041Z,17.40
2023-03-08T05:32:45.652Z,17.63
2023-03-08T05:35:12.103Z,17.90
2023-03-08T05:37:38.624Z,17.20
2023-03-08T05:40:06.496Z,16.20
2023-03-08T05:42:33.625Z,18.27
2023-03-08T05:45:00.168Z,17.67
2023-03-08T05:47:26.881Z,17.40
2023-03-08T05:49:53.382Z,15.87
2023-03-08T05:52:19.904Z,16.17
2023-03-08T05:54:46.356Z,16.60
2023-03-08T05:57:12.904Z,15.47
2023-03-08T05:59:39.407Z,15.73
2023-03-08T06:02:05.882Z,14.80
2023-03-08T06:04:32.783Z,15.03
2023-03-08T06:06:59.910Z,13.93
2023-03-08T06:09:26.504Z,13.70
2023-03-08T06:11:52.941Z,13.10
2023-03-08T06:14:19.402Z,11.70
2023-03-08T06:16:48.533Z,11.23
2023-03-08T06:19:15.952Z,11.60
2023-03-08T06:21:42.437Z,9.40
2023-03-08T06:24:09.111Z,9.73
2023-03-08T06:26:35.599Z,9.90
2023-03-08T06:29:02.055Z,9.87
2023-03-08T06:31:28.507Z,9.70
2023-03-08T06:33:55.006Z,8.20
2023-03-08T06:36:22.144Z,9.30
2023-03-08T06:38:49.540Z,9.00
2023-03-08T06:41:17.746Z,9.93
2023-03-08T06:43:44.427Z,9.33
2023-03-08T06:46:13.535Z,9.43
2023-03-08T06:48:41.277Z,8.60
2023-03-08T06:51:07.848Z,8.17
2023-03-08T06:53:38.321Z,7.47
2023-03-08T06:56:06.717Z,8.40
2023-03-08T06:58:34.943Z,7.80
2023-03-08T07:01:04.193Z,6.67
2023-03-08T07:03:31.753Z,6.57
2023-03-08T07:06:03.168Z,6.90
2023-03-08T07:08:29.636Z,7.50
2023-03-08T07:10:56.174Z,7.00
2023-03-08T07:13:23.753Z,7.10
2023-03-08T07:15:51.420Z,7.03
2023-03-08T07:18:18.498Z,6.90
2023-03-08T07:20:45.242Z,7.10
2023-03-08T07:23:11.877Z,6.67
2023-03-08T07:25:40.078Z,6.77
2023-03-08T07:28:06.538Z,6.50
2023-03-08T07:30:33.075Z,6.60
2023-03-08T07:32:59.623Z,8.47
2023-03-08T07:35:26.058Z,7.47
2023-03-08T07:37:52.588Z,6.60
2023-03-08T07:40:19.241Z,6.97
2023-03-08T07:42:45.934Z,7.00
2023-03-08T07:45:13.991Z,7.27
2023-03-08T07:47:41.124Z,7.20
2023-03-08T07:50:08.718Z,8.03
2023-03-08T07:52:35.207Z,10.10
2023-03-08T07:55:02.738Z,8.33
2023-03-08T07:57:29.310Z,8.63
2023-03-08T07:59:55.762Z,8.07
2023-03-08T08:02:22.232Z,7.10
2023-03-08T08:04:48.813Z,7.47
2023-03-08T08:07:16.644Z,7.30
2023-03-08T08:09:43.488Z,8.00
2023-03-08T08:12:10.339Z,6.63
2023-03-08T08:14:36.877Z,8.30
2023-03-08T08:17:03.541Z,7.40
2023-03-08T08:19:31.954Z,6.73
2023-03-08T08:21:58.818Z,6.73
2023-03-08T08:24:25.486Z,6.80
2023-03-08T08:26:52.037Z,7.50
2023-03-08T08:29:18.524Z,6.90
2023-03-08T08:31:45.084Z,6.10
2023-03-08T08:34:11.752Z,6.20
2023-03-08T08:36:38.267Z,6.30
2023-03-08T08:39:04.869Z,6.10
2023-03-08T08:41:32.354Z,4.73
2023-03-08T08:44:00.272Z,5.50
2023-03-08T08:46:28.075Z,5.90
2023-03-08T08:49:05.469Z,5.93
2023-03-08T08:51:32.393Z,5.77
2023-03-08T08:53:58.860Z,5.50
2023-03-08T08:56:28.816Z,5.47
2023-03-08T08:59:01.427Z,5.73
2023-03-08T09:01:30.762Z,5.40
2023-03-08T09:03:57.861Z,5.47
2023-03-08T09:06:26.025Z,6.37
2023-03-08T09:08:58.361Z,5.90
2023-03-08T09:11:27.068Z,6.73
2023-03-08T09:13:54.163Z,7.37
2023-03-08T09:16:32.554Z,7.00
2023-03-08T09:19:00.957Z,6.47
2023-03-08T09:21:28.838Z,5.60
2023-03-08T09:23:56.424Z,6.30
2023-03-08T09:26:22.893Z,7.10
2023-03-08T09:28:49.465Z,6.07
2023-03-08T09:31:17.649Z,6.50
2023-03-08T09:33:48.347Z,6.50
2023-03-08T09:36:16.240Z,7.40
2023-03-08T09:38:42.898Z,6.67
2023-03-08T09:41:37.858Z,6.57
2023-03-08T09:44:12.059Z,7.00
2023-03-08T09:46:46.313Z,7.27
2023-03-08T09:49:19.379Z,6.17
2023-03-08T09:51:49.019Z,7.70
2023-03-08T09:54:20.246Z,7.67
2023-03-08T09:56:50.186Z,6.93
2023-03-08T09:59:25.175Z,8.03
2023-03-08T10:02:04.806Z,8.10
2023-03-08T10:04:46.061Z,8.37
2023-03-08T10:07:20.010Z,9.40
2023-03-08T10:10:04.992Z,7.70
2023-03-08T10:12:31.667Z,8.23
2023-03-08T10:15:20.381Z,7.23
2023-03-08T10:17:54.389Z,7.30
2023-03-08T10:20:31.754Z,8.63
2023-03-08T10:23:01.267Z,8.20
2023-03-08T10:25:31.433Z,7.07
2023-03-08T10:28:00.144Z,7.50
2023-03-08T10:30:40.127Z,7.77
2023-03-08T10:33:12.470Z,7.83
2023-03-08T10:35:52.609Z,7.70
2023-03-08T10:38:19.164Z,6.90
2023-03-08T10:40:46.034Z,7.50
2023-03-08T10:43:36.292Z,7.20
2023-03-08T10:46:18.455Z,7.90
2023-03-08T10:48:46.053Z,7.90
2023-03-08T10:51:18.846Z,8.87
2023-03-08T10:54:03.343Z,7.73
2023-03-08T10:56:59.091Z,7.83
2023-03-08T10:59:34.581Z,7.30
2023-03-08T11:02:03.301Z,7.60
2023-03-08T11:04:30.879Z,8.63
2023-03-08T11:06:57.603Z,7.30
2023-03-08T11:09:28.008Z,7.23
2023-03-08T11:11:59.680Z,7.30
2023-03-08T11:14:27.616Z,7.60
2023-03-08T11:17:15.952Z,7.57
2023-03-08T11:19:42.345Z,7.63
2023-03-08T11:22:23.773Z,7.57
2023-03-08T11:25:02.377Z,7.73
2023-03-08T11:27:31.835Z,7.40
2023-03-08T11:30:20.340Z,8.30
2023-03-08T11:33:04.552Z,7.60
2023-03-08T11:35:31.143Z,7.63
2023-03-08T11:38:00.516Z,8.53
2023-03-08T11:40:47.774Z,8.43
2023-03-08T11:43:27.658Z,8.80
2023-03-08T11:46:00.128Z,8.50
2023-03-08T11:48:37.850Z,8.17
2023-03-08T11:51:21.265Z,8.47
2023-03-08T11:53:57.818Z,8.70
2023-03-08T11:56:45.266Z,8.70
2023-03-08T11:59:35.503Z,8.90
2023-03-08T12:02:08.218Z,8.00
2023-03-08T12:05:01.870Z,7.80
2023-03-08T12:07:38.996Z,8.60
2023-03-08T12:10:25.344Z,8.53
2023-03-08T12:12:58.378Z,8.70
2023-03-08T12:15:52.698Z,9.53
2023-03-08T12:18:34.672Z,10.17
2023-03-08T12:21:07.106Z,9.07
2023-03-08T12:23:42.275Z,9.00
2023-03-08T12:26:27.968Z,9.40
2023-03-08T12:29:00.767Z,8.70
2023-03-08T12:31:30.662Z,8.80
2023-03-08T12:33:59.736Z,9.37
2023-03-08T12:36:41.595Z,9.00
2023-03-08T12:39:26.298Z,8.73
2023-03-08T12:42:09.271Z,9.57
2023-03-08T12:44:36.509Z,10.17
2023-03-08T12:47:19.426Z,9.43
2023-03-08T12:49:50.595Z,9.10
2023-03-08T12:52:20.281Z,8.33
2023-03-08T12:55:01.268Z,8.53
2023-03-08T12:57:36.047Z,9.20
2023-03-08T13:00:20.217Z,9.07
2023-03-08T13:02:46.903Z,9.10
2023-03-08T13:05:28.517Z,9.27
2023-03-08T13:08:12.991Z,8.37
2023-03-08T13:11:12.037Z,8.47
2023-03-08T13:13:57.188Z,8.97
2023-03-08T13:16:39.996Z,8.73
2023-03-08T13:19:15.860Z,8.90
2023-03-08T13:21:58.968Z,9.47
2023-03-08T13:24:40.317Z,9.67
2023-03-08T13:27:21.978Z,8.70
2023-03-08T13:29:48.727Z,9.00
2023-03-08T13:32:21.146Z,8.57
2023-03-08T13:35:02.183Z,8.30
2023-03-08T13:37:30.233Z,9.13
2023-03-08T13:39:59.368Z,8.50
2023-03-08T13:42:28.490Z,8.30
2023-03-08T13:45:08.260Z,7.70
2023-03-08T13:47:38.128Z,8.00
2023-03-08T13:50:06.136Z,8.70
2023-03-08T13:52:36.446Z,8.30
2023-03-08T13:55:08.462Z,8.27
2023-03-08T13:57:37.976Z,8.60
2023-03-08T14:00:20.233Z,8.37
2023-03-08T14:02:47.423Z,8.33
2023-03-08T14:05:20.030Z,8.50
2023-03-08T14:08:05.445Z,7.67
2023-03-08T14:10:38.952Z,9.77
2023-03-08T14:13:14.938Z,9.10
2023-03-08T14:15:53.177Z,8.80
2023-03-08T14:18:23.166Z,9.17
2023-03-08T14:21:20.377Z,8.83
2023-03-08T14:23:50.633Z,8.70
2023-03-08T14:26:24.507Z,9.60
2023-03-08T14:29:12.332Z,9.03
2023-03-08T14:31:39.623Z,8.03
2023-03-08T14:34:19.813Z,9.50
2023-03-08T14:36:59.244Z,10.10
2023-03-08T14:39:27.688Z,10.07
2023-03-08T14:41:55.490Z,9.73
2023-03-08T14:44:25.947Z,9.07
2023-03-08T14:46:58.357Z,8.73
2023-03-08T14:49:28.135Z,8.43
2023-03-08T14:51:55.216Z,9.60
2023-03-08T14:54:32.904Z,9.20
2023-03-08T14:57:17.896Z,8.97
2023-03-08T14:59:44.702Z,8.83
2023-03-08T15:02:13.850Z,9.20
2023-03-08T15:04:41.704Z,9.00
2023-03-08T15:07:22.317Z,10.30
2023-03-08T15:09:50.038Z,9.47
2023-03-08T15:12:17.852Z,10.13
2023-03-08T15:14:44.847Z,10.57
2023-03-08T15:17:11.334Z,9.87
2023-03-08T15:19:37.869Z,11.70
2023-03-08T15:22:06.268Z,10.90
2023-03-08T15:24:32.919Z,11.40
2023-03-08T15:26:59.370Z,11.80
2023-03-08T15:29:34.404Z,11.27
2023-03-08T15:32:00.984Z,11.30
2023-03-08T15:34:28.787Z,10.60
2023-03-08T15:36:55.648Z,11.00
2023-03-08T15:39:22.168Z,10.83
2023-03-08T15:41:48.593Z,10.93
2023-03-08T15:44:15.382Z,10.70
2023-03-08T15:46:42.017Z,10.43
2023-03-08T15:49:10.345Z,10.60
2023-03-08T15:51:37.080Z,10.70
2023-03-08T15:54:05.552Z,11.03
2023-03-08T15:56:32.142Z,11.10
2023-03-08T15:58:58.694Z,10.30
2023-03-08T16:01:26.731Z,11.43
2023-03-08T16:03:54.825Z,10.67
2023-03-08T16:06:22.272Z,10.90
2023-03-08T16:08:49.134Z,11.20
2023-03-08T16:11:18.325Z,10.50
2023-03-08T16:13:44.741Z,11.10
2023-03-08T16:16:11.327Z,10.93
2023-03-08T16:18:40.339Z,11.40
2023-03-08T16:21:10.683Z,11.60
2023-03-08T16:23:38.995Z,11.03
2023-03-08T16:26:15.682Z,9.87
2023-03-08T16:28:44.644Z,11.90
2023-03-08T16:31:11.654Z,10.93
2023-03-08T16:33:38.135Z,11.30
2023-03-08T16:36:04.857Z,11.23
2023-03-08T16:38:31.348Z,11.10
2023-03-08T16:41:12.193Z,10.50
2023-03-08T16:45:38.669Z,11.33
2023-03-08T16:46:26.310Z,11.50
2023-03-08T16:48:54.564Z,11.90
2023-03-08T16:51:23.349Z,11.57
2023-03-08T16:53:49.867Z,11.10
2023-03-08T16:56:22.458Z,12.13
2023-03-08T16:58:49.186Z,11.87
2023-03-08T17:01:17.479Z,12.83
2023-03-08T17:03:44.194Z,10.87
2023-03-08T17:06:13.374Z,12.40
2023-03-08T17:08:40.043Z,13.10
2023-03-08T17:11:14.757Z,13.27
2023-03-08T17:13:41.208Z,12.23
2023-03-08T17:16:11.692Z,11.63
2023-03-08T17:18:38.547Z,11.90
2023-03-08T17:21:05.778Z,11.70
2023-03-08T17:23:32.456Z,12.10
2023-03-08T17:25:58.972Z,12.00
2023-03-08T17:28:25.427Z,11.40
2023-03-08T17:30:51.917Z,13.53
2023-03-08T17:33:18.358Z,12.47
2023-03-08T17:35:44.992Z,11.90
2023-03-08T17:38:11.513Z,11.73
2023-03-08T17:40:40.352Z,12.23
2023-03-08T17:43:06.829Z,11.47
2023-03-08T17:45:33.511Z,12.77
2023-03-08T17:48:02.712Z,12.33
2023-03-08T17:50:31.151Z,12.23
2023-03-08T17:52:58.513Z,13.20
2023-03-08T17:55:26.274Z,13.63
2023-03-08T17:57:52.962Z,13.57
2023-03-08T18:00:20.105Z,14.07
2023-03-08T18:02:47.008Z,14.03
2023-03-08T18:05:13.552Z,13.80
2023-03-08T18:07:41.817Z,13.60
2023-03-08T18:10:11.030Z,13.50
2023-03-08T18:12:37.618Z,12.90
2023-03-08T18:15:04.891Z,13.57
2023-03-08T18:17:31.389Z,14.90
2023-03-08T18:19:57.844Z,15.20
2023-03-08T18:22:24.664Z,13.70
2023-03-08T18:24:51.203Z,13.97
2023-03-08T18:27:17.800Z,14.00
2023-03-08T18:29:44.435Z,14.90
2023-03-08T18:32:11.040Z,14.30
2023-03-08T18:34:38.646Z,15.90
2023-03-08T18:37:05.247Z,15.07
2023-03-08T18:39:31.828Z,14.83
2023-03-08T18:42:00.628Z,13.90
2023-03-08T18:44:27.213Z,15.03
2023-03-08T18:46:53.828Z,15.37
2023-03-08T18:49:20.364Z,15.00
2023-03-08T18:51:46.856Z,15.50
2023-03-08T18:54:17.309Z,13.23
2023-03-08T18:56:44.446Z,15.30
2023-03-08T18:59:13.421Z,15.53
2023-03-08T19:01:40.803Z,14.17
2023-03-08T19:04:08.008Z,14.70
2023-03-08T19:06:35.814Z,15.23
2023-03-08T19:09:28.576Z,15.70
2023-03-08T19:11:54.996Z,16.23
2023-03-08T19:14:21.495Z,17.70
2023-03-08T19:16:48.012Z,17.27
2023-03-08T19:19:15.537Z,15.47
2023-03-08T19:21:44.765Z,17.23
2023-03-08T19:24:16.205Z,18.00
2023-03-08T19:26:47.120Z,18.80
2023-03-08T19:29:21.881Z,16.83
2023-03-08T19:31:55.632Z,20.03
2023-03-08T19:34:25.559Z,17.70
2023-03-08T19:36:52.332Z,20.50
2023-03-08T19:39:22.506Z,18.20
2023-03-08T19:41:50.943Z,19.30
2023-03-08T19:44:18.178Z,18.93
2023-03-08T19:46:45.339Z,20.47
2023-03-08T19:49:15.815Z,21.00
2023-03-08T19:51:42.468Z,22.07
2023-03-08T19:54:09.620Z,21.77
2023-03-08T19:56:36.409Z,22.40
2023-03-08T19:59:03.239Z,20.20
2023-03-08T20:01:29.823Z,20.00
2023-03-08T20:03:56.746Z,21.57
2023-03-08T20:06:26.834Z,20.87
2023-03-08T20:08:55.560Z,20.93
2023-03-08T20:11:22.083Z,20.60
2023-03-08T20:13:49.055Z,20.63
2023-03-08T20:16:16.355Z,22.43
2023-03-08T20:18:42.906Z,20.90
2023-03-08T20:21:09.521Z,22.30
2023-03-08T20:23:36.042Z,20.43
2023-03-08T20:26:03.908Z,18.63
2023-03-08T20:28:30.444Z,20.90
2023-03-08T20:30:57.069Z,21.27
2023-03-08T20:33:23.658Z,21.97
2023-03-08T20:35:58.053Z,22.13
2023-03-08T20:38:25.597Z,21.77
2023-03-08T20:41:08.491Z,21.10
2023-03-08T20:43:35.092Z,22.57
2023-03-08T20:46:09.962Z,22.43
2023-03-08T20:48:39.064Z,23.37
2023-03-08T20:51:07.678Z,23.43
2023-03-08T20:53:35.363Z,25.73
2023-03-08T20:56:11.346Z,22.90
2023-03-08T20:58:37.916Z,21.70
2023-03-08T21:01:16.807Z,22.27
2023-03-08T21:03:44.587Z,23.07
2023-03-08T21:06:20.140Z,23.90
2023-03-08T21:08:48.175Z,22.60
2023-03-08T21:11:16.003Z,24.20
2023-03-08T21:13:42.952Z,21.60
2023-03-08T21:16:14.147Z,21.43
2023-03-08T21:18:45.700Z,20.60
2023-03-08T21:21:20.610Z,22.77
2023-03-08T21:23:47.756Z,22.83
2023-03-08T21:26:14.366Z,24.10
2023-03-08T21:28:40.800Z,24.53
2023-03-08T21:31:09.314Z,23.03
2023-03-08T21:33:35.851Z,23.07
2023-03-08T21:36:02.472Z,25.53
2023-03-08T21:38:28.929Z,23.43
2023-03-08T21:40:55.439Z,21.83
2023-03-08T21:43:21.886Z,21.07
2023-03-08T21:45:48.351Z,22.10
2023-03-08T21:48:14.853Z,21.63
2023-03-08T21:50:41.787Z,22.37
2023-03-08T21:53:08.693Z,21.10
2023-03-08T21:55:39.678Z,22.97
2023-03-08T21:58:07.251Z,22.77
2023-03-08T22:00:33.763Z,22.50
2023-03-08T22:03:00.529Z,23.90
2023-03-08T22:05:27.040Z,23.90
2023-03-08T22:07:53.535Z,22.67
2023-03-08T22:10:20.281Z,22.57
2023-03-08T22:12:47.428Z,22.90
2023-03-08T22:15:15.885Z,22.17
2023-03-08T22:17:43.334Z,22.27
2023-03-08T22:20:11.143Z,23.57
2023-03-08T22:22:38.957Z,27.97
2023-03-08T22:25:07.414Z,28.03
2023-03-08T22:27:34.503Z,24.20
2023-03-08T22:30:01.068Z,23.83
2023-03-08T22:32:27.688Z,24.40
2023-03-08T22:34:54.141Z,23.90
2023-03-08T22:37:20.892Z,24.83
2023-03-08T22:39:47.360Z,24.77
2023-03-08T22:42:16.292Z,22.67
2023-03-08T22:44:43.175Z,22.67
2023-03-08T22:47:09.787Z,23.83
2023-03-08T22:49:36.397Z,24.90
2023-03-08T22:52:03.272Z,22.97
2023-03-08T22:54:29.767Z,21.60
2023-03-08T22:56:56.641Z,23.00
2023-03-08T22:59:23.369Z,24.20
2023-03-08T23:01:49.921Z,22.80
2023-03-08T23:04:16.478Z,22.33
2023-03-08T23:06:42.981Z,23.13
2023-03-08T23:09:11.379Z,22.87
2023-03-08T23:11:38.613Z,22.00
2023-03-08T23:14:06.484Z,21.53
2023-03-08T23:16:33.424Z,23.70
2023-03-08T23:19:00.111Z,23.47
2023-03-08T23:21:29.772Z,23.47
2023-03-08T23:23:59.508Z,24.60
2023-03-08T23:26:27.332Z,24.67
2023-03-08T23:28:59.032Z,22.90
2023-03-08T23:31:31.353Z,24.80
2023-03-08T23:34:00.552Z,22.67
2023-03-08T23:36:29.457Z,23.13
2023-03-08T23:38:56.228Z,24.33
2023-03-08T23:41:22.813Z,22.80
2023-03-08T23:43:49.226Z,25.30
2023-03-08T23:46:18.744Z,23.07
2023-03-08T23:48:46.788Z,23.30
2023-03-08T23:51:16.740Z,22.30
2023-03-08T23:53:43.165Z,23.87
2023-03-08T23:56:30.037Z,23.77
2023-03-08T23:58:59.159Z,23.27
